Time;durP1;ratioP1;P1;durP2;ratioP2;P2;SDS_P1;SDS_P2;PMS_P1;PMS_P2;Temp;Humidity;BMP_temperature;BMP_pressure;BME280_temperature;BME280_humidity;BME280_pressure;Samples;Min_cycle;Max_cycle;Signal;HPM_P1;HPM_P2
2022/06/22 00:00:37;;;;;;;24.27;11.55;;;14.20;99.90;;;;;;5053644;28;20029;-65
2022/06/22 00:03:07;;;;;;;23.17;10.55;;;14.20;99.90;;;;;;5052562;28;20025;-63
2022/06/22 00:05:32;;;;;;;31.45;15.45;;;14.10;99.90;;;;;;5053205;28;20451;-64
2022/06/22 00:08:02;;;;;;;24.75;11.00;;;14.10;99.90;;;;;;5053205;28;20025;-65
2022/06/22 00:10:37;;;;;;;21.70;10.75;;;14.10;99.90;;;;;;5053527;28;20119;-64
2022/06/22 00:13:12;;;;;;;25.23;12.02;;;14.00;99.90;;;;;;5052883;28;20414;-63
2022/06/22 00:15:45;;;;;;;25.80;12.90;;;14.00;99.90;;;;;;5053143;28;20344;-63
2022/06/22 00:18:34;;;;;;;24.90;12.98;;;13.90;99.90;;;;;;5052873;28;20067;-63
2022/06/22 00:21:04;;;;;;;23.23;11.38;;;13.90;99.90;;;;;;5052989;28;20044;-67
2022/06/22 00:23:40;;;;;;;26.83;13.38;;;13.90;99.90;;;;;;5052638;28;20446;-63
2022/06/22 00:26:22;;;;;;;28.55;13.27;;;13.80;99.90;;;;;;5052966;28;20017;-63
2022/06/22 00:29:05;;;;;;;25.85;12.35;;;13.80;99.90;;;;;;5053092;28;20111;-65
2022/06/22 00:31:39;;;;;;;25.50;14.20;;;13.80;99.90;;;;;;5052212;28;20049;-66
2022/06/22 00:34:10;;;;;;;30.15;14.18;;;13.80;99.90;;;;;;5052309;28;20343;-62
2022/06/22 00:36:38;;;;;;;27.70;14.63;;;13.70;99.90;;;;;;5052750;28;20032;-62
2022/06/22 00:39:21;;;;;;;30.80;15.63;;;13.70;99.90;;;;;;5051348;28;20044;-66
2022/06/22 00:42:15;;;;;;;32.75;16.05;;;13.70;99.90;;;;;;5052059;28;20059;-65
2022/06/22 00:44:52;;;;;;;31.42;17.55;;;13.70;99.90;;;;;;5052500;28;20021;-63
2022/06/22 00:47:29;;;;;;;32.38;18.08;;;13.70;99.90;;;;;;5052882;28;20455;-64
2022/06/22 00:49:59;;;;;;;31.40;17.10;;;13.70;99.90;;;;;;5052196;28;20099;-67
2022/06/22 00:52:41;;;;;;;32.58;18.48;;;13.70;99.90;;;;;;5049341;28;20459;-64
2022/06/22 00:55:27;;;;;;;33.67;17.50;;;13.70;99.90;;;;;;5048101;28;20092;-67
2022/06/22 00:58:16;;;;;;;33.53;17.33;;;13.70;99.90;;;;;;5049231;28;20049;-66
2022/06/22 01:01:05;;;;;;;34.05;17.85;;;13.60;99.90;;;;;;5051694;28;20009;-64
2022/06/22 01:03:50;;;;;;;36.65;18.58;;;13.60;99.90;;;;;;5049937;28;20016;-63
2022/06/22 01:06:44;;;;;;;33.28;17.10;;;13.60;99.90;;;;;;5050635;28;20447;-62
2022/06/22 01:09:25;;;;;;;38.03;18.60;;;13.60;99.90;;;;;;5049703;28;20032;-65
2022/06/22 01:12:17;;;;;;;35.20;18.98;;;13.60;99.90;;;;;;5050330;28;20024;-63
2022/06/22 01:15:02;;;;;;;36.83;19.75;;;13.50;99.90;;;;;;5054151;28;20070;-64
2022/06/22 01:17:49;;;;;;;38.92;18.55;;;13.50;99.90;;;;;;5053102;28;20453;-67
2022/06/22 01:20:22;;;;;;;36.75;18.38;;;13.50;99.90;;;;;;5054574;28;20445;-63
2022/06/22 01:23:09;;;;;;;31.50;18.05;;;13.50;99.90;;;;;;5053285;28;20481;-63
2022/06/22 01:26:11;;;;;;;36.97;18.77;;;13.50;99.90;;;;;;5053964;28;20025;-63
2022/06/22 01:28:37;;;;;;;;;;;13.40;99.90;;;;;;5054891;28;20025;-64
2022/06/22 01:31:13;;;;;;;32.03;17.35;;;13.40;99.90;;;;;;5054910;28;19900;-64
2022/06/22 01:33:47;;;;;;;35.47;17.35;;;13.40;99.90;;;;;;5054043;28;20458;-64
2022/06/22 01:36:23;;;;;;;34.72;17.90;;;13.30;99.90;;;;;;5053944;28;20057;-63
2022/06/22 01:38:50;;;;;;;35.08;17.45;;;13.30;99.90;;;;;;5052001;28;20415;-63
2022/06/22 01:41:29;;;;;;;36.38;17.45;;;13.30;99.90;;;;;;5054645;28;20025;-66
2022/06/22 01:44:10;;;;;;;35.30;18.48;;;13.20;99.90;;;;;;5054657;28;20060;-64
2022/06/22 01:46:48;;;;;;;36.55;19.45;;;13.20;99.90;;;;;;5053922;28;20097;-65
2022/06/22 01:49:19;;;;;;;34.20;19.15;;;13.20;99.90;;;;;;5055554;28;20029;-65
2022/06/22 01:51:55;;;;;;;34.70;18.05;;;13.20;99.90;;;;;;5054449;28;20025;-62
2022/06/22 01:54:29;;;;;;;33.40;18.13;;;13.20;99.90;;;;;;5055349;28;20032;-65
2022/06/22 01:57:12;;;;;;;34.25;18.40;;;13.20;99.90;;;;;;5054340;28;20031;-64
2022/06/22 02:00:01;;;;;;;30.65;16.67;;;13.20;99.90;;;;;;5055511;28;20021;-66
2022/06/22 02:02:35;;;;;;;39.65;18.65;;;13.10;99.90;;;;;;5054207;28;20414;-64
2022/06/22 02:05:17;;;;;;;36.28;17.95;;;13.10;99.90;;;;;;5055329;28;20064;-64
2022/06/22 02:08:17;;;;;;;37.83;19.40;;;13.10;99.90;;;;;;5054867;28;20484;-64
2022/06/22 02:10:49;;;;;;;38.00;19.13;;;13.10;99.90;;;;;;5021193;28;20033;-63
2022/06/22 02:13:38;;;;;;;38.47;18.27;;;13.00;99.90;;;;;;5055179;28;20024;-65
2022/06/22 02:16:23;;;;;;;33.45;17.67;;;13.00;99.90;;;;;;5053918;28;20033;-63
2022/06/22 02:19:09;;;;;;;34.45;18.50;;;13.00;99.90;;;;;;5054896;28;20427;-66
2022/06/22 02:21:42;;;;;;;34.83;18.27;;;12.90;99.90;;;;;;5054763;28;20123;-62
2022/06/22 02:24:18;;;;;;;37.22;18.83;;;12.80;99.90;;;;;;5054736;28;20033;-64
2022/06/22 02:27:10;;;;;;;41.33;19.33;;;12.80;99.90;;;;;;5054015;28;20060;-63
2022/06/22 02:29:51;;;;;;;31.77;17.50;;;12.70;99.90;;;;;;5046398;28;20032;-67
2022/06/22 02:32:24;;;;;;;33.50;18.45;;;12.70;99.90;;;;;;5055147;28;20056;-63
2022/06/22 02:34:52;;;;;;;29.80;15.98;;;12.60;99.90;;;;;;5054875;28;20087;-64
2022/06/22 02:37:20;;;;;;;31.98;16.55;;;12.50;99.90;;;;;;5054787;28;20017;-62
2022/06/22 02:39:55;;;;;;;33.05;17.23;;;12.50;99.90;;;;;;5055003;28;20021;-66
2022/06/22 02:45:11;;;;;;;34.80;17.88;;;12.50;99.90;;;;;;5054471;28;20028;-65
2022/06/22 02:47:47;;;;;;;36.88;17.58;;;12.40;99.90;;;;;;5054946;28;20025;-63
2022/06/22 02:50:21;;;;;;;37.20;18.67;;;12.40;99.90;;;;;;5054519;28;20025;-66
2022/06/22 02:52:51;;;;;;;33.60;17.55;;;12.40;99.90;;;;;;5053073;28;20053;-64
2022/06/22 02:55:19;;;;;;;37.58;18.58;;;12.40;99.90;;;;;;5052989;28;20048;-63
2022/06/22 02:57:51;;;;;;;35.35;17.15;;;12.40;99.90;;;;;;5054560;28;20451;-64
2022/06/22 03:00:19;;;;;;;35.70;17.63;;;12.40;99.90;;;;;;5054505;28;20024;-66
2022/06/22 03:02:47;;;;;;;36.72;17.83;;;12.40;99.90;;;;;;5054464;28;20052;-63
2022/06/22 03:05:14;;;;;;;32.58;16.15;;;12.40;99.90;;;;;;5054322;28;20032;-62
2022/06/22 03:07:46;;;;;;;31.77;16.95;;;12.40;99.90;;;;;;5053679;28;20469;-63
2022/06/22 03:10:23;;;;;;;;;;;12.40;99.90;;;;;;5053782;28;20020;-64
2022/06/22 03:12:50;;;;;;;33.10;16.73;;;12.40;99.90;;;;;;5054061;28;20014;-66
2022/06/22 03:15:21;;;;;;;36.15;18.17;;;12.40;99.90;;;;;;5054156;28;20458;-67
2022/06/22 03:17:47;;;;;;;35.65;16.90;;;12.40;99.90;;;;;;5053611;28;20013;-63
2022/06/22 03:20:18;;;;;;;33.95;17.75;;;12.40;99.90;;;;;;5053759;28;20478;-65
2022/06/22 03:22:50;;;;;;;34.50;17.50;;;12.50;99.90;;;;;;5053975;28;20459;-64
2022/06/22 03:25:19;;;;;;;36.47;17.23;;;12.40;99.90;;;;;;5053785;28;20021;-63
2022/06/22 03:27:53;;;;;;;39.03;18.17;;;12.40;99.90;;;;;;5053675;28;20025;-64
2022/06/22 03:30:25;;;;;;;35.08;17.98;;;12.50;99.90;;;;;;5053896;28;20021;-64
2022/06/22 03:32:59;;;;;;;32.78;18.00;;;12.40;99.90;;;;;;5053697;28;20102;-63
2022/06/22 03:35:33;;;;;;;35.50;17.35;;;12.40;99.90;;;;;;5053814;28;20111;-63
2022/06/22 03:38:08;;;;;;;31.75;17.25;;;12.40;99.90;;;;;;5053659;28;20104;-64
2022/06/22 03:40:41;;;;;;;35.55;18.52;;;12.40;99.90;;;;;;5053957;28;20021;-63
2022/06/22 03:43:15;;;;;;;31.73;16.83;;;12.40;99.90;;;;;;5053900;28;20124;-64
2022/06/22 03:45:49;;;;;;;33.20;16.75;;;12.30;99.90;;;;;;5053173;28;20431;-64
2022/06/22 03:48:27;;;;;;;37.03;18.15;;;12.30;99.90;;;;;;5053497;28;20116;-66
2022/06/22 03:51:06;;;;;;;40.05;18.67;;;12.30;99.90;;;;;;5053442;28;20508;-65
2022/06/22 03:53:43;;;;;;;32.08;17.10;;;12.30;99.90;;;;;;5052733;28;20481;-63
2022/06/22 03:56:14;;;;;;;35.97;18.67;;;12.30;99.90;;;;;;5053794;28;20025;-67
2022/06/22 03:58:42;;;;;;;29.05;15.60;;;12.30;99.90;;;;;;5053433;28;20075;-65
2022/06/22 04:01:10;;;;;;;32.03;16.75;;;12.30;99.90;;;;;;5053426;28;20025;-64
2022/06/22 04:03:36;;;;;;;29.40;15.30;;;12.30;99.90;;;;;;5053136;28;20028;-63
2022/06/22 04:06:03;;;;;;;34.00;16.83;;;12.30;99.90;;;;;;5052559;28;20025;-63
2022/06/22 04:08:37;;;;;;;33.95;16.38;;;12.30;99.90;;;;;;5052765;28;20067;-67
2022/06/22 04:11:06;;;;;;;35.13;16.73;;;12.30;99.90;;;;;;5052873;28;20021;-65
2022/06/22 04:13:41;;;;;;;33.05;17.30;;;12.30;99.90;;;;;;5052549;28;20443;-66
2022/06/22 04:16:17;;;;;;;33.60;17.27;;;12.30;99.90;;;;;;5052697;28;20020;-62
2022/06/22 04:18:53;;;;;;;34.83;18.92;;;12.30;99.90;;;;;;5053145;28;20028;-63
2022/06/22 04:21:44;;;;;;;33.22;17.60;;;12.40;99.90;;;;;;5053204;28;20025;-63
2022/06/22 04:24:14;;;;;;;31.40;16.02;;;12.40;99.90;;;;;;5053066;28;20025;-63
2022/06/22 04:26:49;;;;;;;29.67;16.48;;;12.50;99.90;;;;;;5052859;28;20060;-65
2022/06/22 04:29:39;;;;;;;27.95;15.55;;;12.50;99.90;;;;;;5052948;28;20033;-63
2022/06/22 04:32:19;;;;;;;29.98;16.48;;;12.60;99.90;;;;;;5052574;28;20041;-67
2022/06/22 04:35:07;;;;;;;28.05;16.38;;;12.70;99.90;;;;;;5052506;28;20037;-63
2022/06/22 04:37:45;;;;;;;32.50;16.42;;;12.70;99.90;;;;;;5052697;28;20029;-63
2022/06/22 04:40:14;;;;;;;34.30;16.50;;;12.80;99.90;;;;;;5052641;28;20025;-62
2022/06/22 04:42:41;;;;;;;33.53;16.42;;;12.90;99.90;;;;;;5052533;28;20029;-63
2022/06/22 04:45:21;;;;;;;31.23;16.48;;;13.00;99.90;;;;;;5052638;28;20064;-66
2022/06/22 04:47:47;;;;;;;33.95;17.67;;;13.10;99.90;;;;;;5052644;28;20033;-63
2022/06/22 04:50:13;;;;;;;32.75;16.88;;;13.20;99.90;;;;;;5052027;28;20021;-62
2022/06/22 04:52:43;;;;;;;34.55;17.85;;;13.30;99.90;;;;;;5052240;28;20091;-64
2022/06/22 04:55:20;;;;;;;33.15;17.73;;;13.50;99.90;;;;;;5052547;28;20025;-64
2022/06/22 04:57:49;;;;;;;30.77;17.25;;;13.60;99.90;;;;;;5052199;28;20083;-64
2022/06/22 05:00:21;;;;;;;29.92;16.92;;;13.80;99.90;;;;;;5052284;28;20090;-63
2022/06/22 05:02:49;;;;;;;;;;;13.90;99.90;;;;;;5053138;28;20017;-65
2022/06/22 05:05:24;;;;;;;28.92;15.63;;;14.10;99.90;;;;;;5053085;28;19908;-65
2022/06/22 05:07:57;;;;;;;27.10;15.40;;;14.30;99.90;;;;;;5052940;28;20032;-67
2022/06/22 05:10:35;;;;;;;26.48;14.55;;;14.40;99.90;;;;;;5052204;28;20413;-66
2022/06/22 05:13:26;;;;;;;28.83;14.50;;;14.70;99.90;;;;;;5050449;28;20033;-64
2022/06/22 05:15:55;;;;;;;28.60;13.93;;;14.90;99.90;;;;;;5052269;28;20116;-67
2022/06/22 05:18:26;;;;;;;30.92;15.50;;;15.20;99.90;;;;;;5052354;28;20057;-63
2022/06/22 05:21:19;;;;;;;38.85;21.45;;;15.50;99.90;;;;;;5050695;28;20028;-63
2022/06/22 05:23:50;;;;;;;24.30;11.75;;;15.80;99.90;;;;;;5052351;28;20489;-63
2022/06/22 05:26:18;;;;;;;20.35;10.38;;;16.10;99.90;;;;;;5053131;28;20078;-64
2022/06/22 05:28:48;;;;;;;20.13;10.98;;;16.60;99.90;;;;;;5052598;28;20021;-64
2022/06/22 05:31:22;;;;;;;22.50;11.10;;;17.20;99.90;;;;;;5052631;28;20052;-64
2022/06/22 05:33:52;;;;;;;19.25;9.63;;;17.80;99.90;;;;;;5052663;28;20041;-64
2022/06/22 05:36:21;;;;;;;20.98;9.07;;;18.70;99.90;;;;;;5051436;28;20075;-62
2022/06/22 05:38:50;;;;;;;17.65;8.00;;;19.40;99.90;;;;;;5051855;28;20032;-64
2022/06/22 05:41:20;;;;;;;12.95;7.38;;;20.20;99.90;;;;;;5052397;28;20043;-63
2022/06/22 05:43:46;;;;;;;14.05;7.13;;;21.00;99.90;;;;;;5052342;28;20178;-63
2022/06/22 05:46:13;;;;;;;15.23;6.57;;;21.70;99.90;;;;;;5052384;28;20518;-64
2022/06/22 05:48:42;;;;;;;13.80;6.45;;;22.40;99.90;;;;;;5052574;28;20017;-65
2022/06/22 05:51:40;;;;;;;14.25;6.57;;;23.10;99.90;;;;;;5052257;28;20053;-64
2022/06/22 05:54:15;;;;;;;13.63;6.63;;;23.50;98.90;;;;;;5007697;28;20052;-64
2022/06/22 05:56:50;;;;;;;13.88;6.43;;;24.20;98.00;;;;;;5051068;28;20021;-63
2022/06/22 05:59:34;;;;;;;10.30;5.25;;;24.90;97.00;;;;;;5052370;28;20497;-62
2022/06/22 06:02:14;;;;;;;10.63;5.82;;;25.60;95.70;;;;;;5054718;28;20434;-65
2022/06/22 06:04:48;;;;;;;13.25;5.35;;;26.00;94.10;;;;;;5055502;28;20070;-65
2022/06/22 06:07:19;;;;;;;12.77;5.13;;;26.40;92.80;;;;;;5055535;28;20028;-63
2022/06/22 06:09:46;;;;;;;8.38;5.05;;;26.40;92.30;;;;;;5055768;28;20104;-68
2022/06/22 06:12:19;;;;;;;12.55;5.10;;;26.70;91.70;;;;;;5055885;28;20028;-66
2022/06/22 06:14:48;;;;;;;7.65;4.75;;;27.10;91.70;;;;;;5055768;28;20033;-67
2022/06/22 06:17:24;;;;;;;8.25;4.90;;;27.60;90.60;;;;;;5055546;28;20032;-62
2022/06/22 06:19:52;;;;;;;13.85;4.78;;;28.00;90.00;;;;;;5055525;28;20017;-64
2022/06/22 06:22:20;;;;;;;10.05;4.78;;;28.30;88.20;;;;;;5054275;28;20413;-65
2022/06/22 06:27:51;;;;;;;7.90;4.60;;;28.60;87.10;;;;;;5055191;28;20386;-63
2022/06/22 06:30:27;;;;;;;13.00;4.57;;;29.00;86.50;;;;;;5055661;28;20025;-63
2022/06/22 06:33:02;;;;;;;11.02;4.28;;;29.40;85.00;;;;;;5053987;28;20041;-63
2022/06/22 06:35:33;;;;;;;9.05;4.78;;;29.70;84.10;;;;;;5055459;28;20029;-64
2022/06/22 06:38:36;;;;;;;8.38;4.65;;;30.00;82.10;;;;;;5054336;28;20021;-64
2022/06/22 06:41:07;;;;;;;13.88;5.25;;;30.30;81.90;;;;;;5055275;28;20060;-66
2022/06/22 06:44:00;;;;;;;10.57;4.78;;;30.90;81.50;;;;;;5055179;28;20044;-66
2022/06/22 06:46:44;;;;;;;9.80;4.63;;;31.50;80.60;;;;;;5055420;28;20120;-63
2022/06/22 06:49:34;;;;;;;12.27;6.15;;;32.00;78.00;;;;;;5055074;28;20033;-64
2022/06/22 06:52:21;;;;;;;12.95;5.45;;;32.30;77.10;;;;;;5055158;28;20021;-63
2022/06/22 06:55:06;;;;;;;9.73;4.68;;;32.60;76.30;;;;;;5055291;28;20404;-63
2022/06/22 06:57:32;;;;;;;11.02;4.15;;;32.90;74.70;;;;;;5055153;28;20060;-64
2022/06/22 07:00:03;;;;;;;10.07;4.65;;;33.00;73.60;;;;;;5055010;28;20112;-66
2022/06/22 07:02:32;;;;;;;11.63;5.05;;;33.20;73.50;;;;;;5054963;28;20057;-64
2022/06/22 07:05:00;;;;;;;10.23;4.82;;;33.70;72.70;;;;;;5055018;28;20122;-64
2022/06/22 07:07:34;;;;;;;11.00;4.75;;;34.20;71.70;;;;;;5054796;28;20021;-65
2022/06/22 07:10:08;;;;;;;9.20;4.80;;;34.50;69.70;;;;;;5054762;28;20051;-64
2022/06/22 07:12:36;;;;;;;10.45;4.30;;;34.30;69.10;;;;;;5053960;28;20033;-65
2022/06/22 07:15:04;;;;;;;12.95;4.65;;;34.20;68.40;;;;;;5054903;28;20135;-64
2022/06/22 07:17:32;;;;;;;10.85;4.22;;;34.30;68.40;;;;;;5053969;28;20077;-64
2022/06/22 07:20:05;;;;;;;7.68;4.38;;;34.40;67.70;;;;;;5054519;28;20024;-65
2022/06/22 07:22:42;;;;;;;7.45;4.00;;;34.40;67.20;;;;;;5054662;28;20360;-64
2022/06/22 07:25:12;;;;;;;13.20;4.97;;;34.30;66.50;;;;;;5054737;28;20052;-64
2022/06/22 07:27:46;;;;;;;8.95;4.20;;;34.30;67.00;;;;;;5054421;28;20021;-64
2022/06/22 07:30:37;;;;;;;7.70;4.20;;;34.40;65.50;;;;;;5054465;28;20029;-64
2022/06/22 07:33:12;;;;;;;7.55;3.95;;;34.40;64.40;;;;;;5054100;28;20144;-64
2022/06/22 07:35:48;;;;;;;10.07;4.30;;;34.10;64.50;;;;;;5054523;28;20467;-65
2022/06/22 07:38:41;;;;;;;9.50;4.32;;;33.60;65.00;;;;;;5054389;28;20462;-64
2022/06/22 07:41:19;;;;;;;8.70;4.30;;;33.50;65.30;;;;;;5054498;28;20048;-64
2022/06/22 07:43:58;;;;;;;10.43;4.30;;;33.50;65.70;;;;;;5054194;28;20025;-64
2022/06/22 07:46:28;;;;;;;11.02;4.70;;;33.80;65.40;;;;;;5054423;28;20032;-64
2022/06/22 07:49:01;;;;;;;11.95;5.43;;;33.60;65.20;;;;;;5054208;28;20021;-66
2022/06/22 07:51:31;;;;;;;10.75;4.88;;;33.30;65.60;;;;;;5054190;28;20017;-64
2022/06/22 07:54:15;;;;;;;10.70;4.40;;;33.00;65.50;;;;;;5054244;28;20048;-65
2022/06/22 07:57:02;;;;;;;9.80;5.10;;;32.60;66.60;;;;;;5054023;28;20474;-66
2022/06/22 07:59:36;;;;;;;10.57;4.97;;;32.20;67.30;;;;;;5053945;28;20091;-67
2022/06/22 08:02:09;;;;;;;8.75;4.68;;;31.40;68.20;;;;;;5053635;28;20025;-67
2022/06/22 08:04:44;;;;;;;14.57;5.65;;;30.80;69.30;;;;;;5053503;28;20021;-64
2022/06/22 08:07:20;;;;;;;10.32;5.13;;;30.30;70.10;;;;;;5054337;28;20111;-63
2022/06/22 08:10:08;;;;;;;10.50;4.82;;;29.90;71.00;;;;;;5053823;28;20028;-63
2022/06/22 08:13:01;;;;;;;15.45;5.32;;;29.40;71.70;;;;;;5053720;28;20052;-64
2022/06/22 08:15:30;;;;;;;12.57;5.28;;;29.30;72.20;;;;;;5053512;28;20028;-66
2022/06/22 08:17:58;;;;;;;13.68;5.60;;;29.30;71.40;;;;;;5053166;28;20025;-67
2022/06/22 08:20:27;;;;;;;13.60;5.53;;;29.50;72.20;;;;;;5053151;28;20401;-65
2022/06/22 08:22:56;;;;;;;10.52;4.65;;;29.90;71.20;;;;;;5051834;28;20343;-65
2022/06/22 08:25:22;;;;;;;10.57;4.65;;;30.40;69.40;;;;;;5053007;28;20025;-64
2022/06/22 08:27:48;;;;;;;13.25;5.28;;;31.10;66.80;;;;;;5053086;28;20025;-66
2022/06/22 08:30:16;;;;;;;6.50;3.88;;;31.80;67.50;;;;;;5052927;28;20516;-64
2022/06/22 08:33:04;;;;;;;10.00;4.88;;;32.70;63.10;;;;;;5052661;28;20049;-64
2022/06/22 08:35:57;;;;;;;9.57;4.50;;;33.60;62.60;;;;;;5053346;28;20037;-67
2022/06/22 08:38:32;;;;;;;7.13;4.40;;;34.50;63.00;;;;;;5052891;28;20036;-64
2022/06/22 08:41:00;;;;;;;11.40;5.05;;;35.30;62.40;;;;;;5053596;28;20093;-64
2022/06/22 08:43:42;;;;;;;8.18;4.22;;;35.80;61.90;;;;;;5053436;28;20403;-64
2022/06/22 08:46:29;;;;;;;8.43;4.45;;;36.50;60.40;;;;;;5052956;28;20096;-67
2022/06/22 08:49:25;;;;;;;9.90;3.80;;;37.30;58.20;;;;;;5053199;28;20029;-64
2022/06/22 08:52:00;;;;;;;9.98;4.50;;;37.80;56.10;;;;;;5015431;28;20044;-65
2022/06/22 08:54:49;;;;;;;8.73;4.50;;;37.70;55.40;;;;;;5053157;28;20478;-67
2022/06/22 08:57:24;;;;;;;9.77;4.18;;;37.50;54.80;;;;;;5052676;28;20021;-68
2022/06/22 09:00:07;;;;;;;7.75;3.45;;;37.70;55.00;;;;;;5052667;28;20028;-66
2022/06/22 09:02:43;;;;;;;5.57;3.10;;;38.00;53.70;;;;;;5053285;28;20017;-64
2022/06/22 09:05:19;;;;;;;8.98;4.43;;;38.50;53.30;;;;;;5052958;28;20029;-64
2022/06/22 09:07:44;;;;;;;7.65;3.75;;;38.90;53.40;;;;;;5052841;28;20021;-65
2022/06/22 09:10:13;;;;;;;9.98;3.85;;;39.10;51.00;;;;;;5052626;28;20363;-64
2022/06/22 09:12:51;;;;;;;8.57;3.50;;;38.80;50.70;;;;;;5052506;28;20386;-64
2022/06/22 09:15:53;;;;;;;9.20;3.60;;;38.80;51.40;;;;;;5052847;28;20107;-63
2022/06/22 09:18:45;;;;;;;8.00;3.72;;;39.10;50.90;;;;;;5052570;28;20025;-65
2022/06/22 09:21:14;;;;;;;6.90;3.28;;;39.30;50.30;;;;;;5052595;28;20455;-64
2022/06/22 09:24:04;;;;;;;7.82;4.03;;;39.00;49.40;;;;;;5052323;28;20021;-65
2022/06/22 09:26:43;;;;;;;7.13;3.47;;;38.90;49.20;;;;;;5068084;28;20082;-64
2022/06/22 09:29:40;;;;;;;6.65;2.60;;;39.00;49.70;;;;;;5052807;28;20025;-68
2022/06/22 09:32:11;;;;;;;5.07;2.53;;;39.20;48.90;;;;;;5061441;28;20044;-67
2022/06/22 09:35:03;;;;;;;9.32;3.03;;;39.30;48.40;;;;;;5073010;28;20143;-63
2022/06/22 09:37:58;;;;;;;8.05;3.10;;;39.30;48.80;;;;;;5065169;28;20093;-64
2022/06/22 09:40:37;;;;;;;16.45;3.20;;;39.00;48.70;;;;;;5068574;28;20048;-64
2022/06/22 09:43:28;;;;;;;5.13;2.40;;;39.20;48.40;;;;;;5056245;28;20025;-63
2022/06/22 09:45:59;;;;;;;5.50;1.88;;;39.00;47.20;;;;;;5056354;28;20032;-64
2022/06/22 09:48:41;;;;;;;5.47;2.30;;;38.60;45.80;;;;;;5056210;28;20439;-65
2022/06/22 09:51:12;;;;;;;3.22;1.70;;;38.60;46.80;;;;;;5056179;28;20017;-64
2022/06/22 09:54:08;;;;;;;3.28;1.80;;;39.00;46.20;;;;;;5056593;28;20033;-64
2022/06/22 09:56:33;;;;;;;2.88;1.80;;;39.00;45.90;;;;;;5056006;28;20025;-64
2022/06/22 09:59:31;;;;;;;4.30;2.53;;;38.80;46.90;;;;;;5075591;28;20021;-67
2022/06/22 10:02:21;;;;;;;6.85;2.40;;;38.30;47.10;;;;;;5047433;28;20103;-64
2022/06/22 10:05:26;;;;;;;4.00;1.92;;;38.20;47.70;;;;;;5073259;28;20127;-66
2022/06/22 10:08:36;;;;;;;6.95;2.55;;;38.90;47.40;;;;;;5056104;28;20021;-64
2022/06/22 10:11:11;;;;;;;4.63;1.40;;;39.30;46.40;;;;;;5072662;28;20017;-64
2022/06/22 10:13:47;;;;;;;4.97;2.08;;;39.60;45.00;;;;;;5075908;28;20033;-67
2022/06/22 10:16:31;;;;;;;3.17;1.45;;;39.80;45.10;;;;;;5076107;28;20363;-64
2022/06/22 10:19:28;;;;;;;3.03;1.50;;;39.70;44.60;;;;;;5064063;28;20043;-65
2022/06/22 10:22:18;;;;;;;3.58;1.65;;;39.70;44.60;;;;;;5055506;28;20366;-64
2022/06/22 10:25:28;;;;;;;2.50;1.10;;;39.40;44.30;;;;;;5055775;28;20017;-64
2022/06/22 10:28:12;;;;;;;3.80;1.27;;;39.70;42.20;;;;;;5055418;28;20021;-65
2022/06/22 10:31:01;;;;;;;4.03;1.27;;;39.90;42.90;;;;;;5055403;28;20427;-64
2022/06/22 10:33:48;;;;;;;6.07;2.83;;;39.70;42.80;;;;;;5055126;28;20124;-64
2022/06/22 10:36:57;;;;;;;7.05;2.97;;;39.60;43.10;;;;;;5068813;28;20023;-65
2022/06/22 10:39:22;;;;;;;5.22;2.00;;;39.60;41.50;;;;;;5073735;28;20111;-65
2022/06/22 10:45:23;;;;;;;1.88;0.82;;;39.40;42.80;;;;;;5075095;28;20032;-64
2022/06/22 10:48:14;;;;;;;3.30;1.58;;;39.20;40.80;;;;;;5074419;28;20024;-66
2022/06/22 10:51:05;;;;;;;3.65;1.60;;;39.40;41.30;;;;;;5075556;28;20055;-64
2022/06/22 10:53:57;;;;;;;3.10;1.52;;;39.70;42.00;;;;;;5075048;28;20032;-63
2022/06/22 10:56:52;;;;;;;4.30;1.27;;;39.80;42.00;;;;;;5075451;28;20031;-64
2022/06/22 10:59:41;;;;;;;1.63;1.30;;;39.90;41.10;;;;;;5075201;28;20024;-67
2022/06/22 11:02:43;;;;;;;3.67;1.25;;;39.70;40.80;;;;;;5059046;28;20048;-65
2022/06/22 11:05:31;;;;;;;2.42;0.90;;;39.80;40.40;;;;;;5054770;28;20025;-64
2022/06/22 11:08:25;;;;;;;2.38;1.10;;;39.90;40.50;;;;;;5054662;28;20028;-64
2022/06/22 11:11:03;;;;;;;2.60;1.00;;;39.70;40.90;;;;;;5054739;28;20500;-65
2022/06/22 11:13:47;;;;;;;2.22;0.95;;;39.80;40.90;;;;;;5054767;28;20039;-68
2022/06/22 11:16:24;;;;;;;4.95;1.20;;;39.80;41.30;;;;;;5054789;28;20032;-68
2022/06/22 11:19:08;;;;;;;3.83;1.13;;;39.30;41.10;;;;;;5054896;28;20029;-64
2022/06/22 11:21:51;;;;;;;1.52;1.00;;;39.00;42.10;;;;;;5054963;28;20021;-64
2022/06/22 11:24:22;;;;;;;5.35;2.08;;;39.00;42.60;;;;;;5054621;28;20031;-65
2022/06/22 11:33:19;;;;;;;3.40;1.65;;;39.30;43.70;;;;;;5054180;28;20382;-67
2022/06/22 11:36:06;;;;;;;2.88;1.30;;;39.60;43.00;;;;;;5054109;28;20025;-64
2022/06/22 11:38:31;;;;;;;4.30;2.30;;;39.90;42.00;;;;;;5054402;28;20013;-65
2022/06/22 11:41:05;;;;;;;3.53;1.50;;;40.10;42.30;;;;;;5054295;28;20410;-64
2022/06/22 11:43:39;;;;;;;4.00;1.67;;;40.60;41.80;;;;;;5054622;28;20032;-62
2022/06/22 11:46:33;;;;;;;5.30;1.60;;;41.00;41.70;;;;;;5053987;28;20095;-64
2022/06/22 11:49:36;;;;;;;4.15;1.48;;;41.10;40.90;;;;;;5047803;28;20037;-65
2022/06/22 11:52:10;;;;;;;2.53;1.10;;;41.30;40.40;;;;;;5054184;28;20032;-63
2022/06/22 11:54:56;;;;;;;2.92;1.08;;;41.70;39.60;;;;;;5053620;28;20036;-64
2022/06/22 11:57:47;;;;;;;3.20;1.20;;;41.80;39.10;;;;;;5053936;28;20017;-64
2022/06/22 12:00:39;;;;;;;2.00;0.95;;;41.60;38.60;;;;;;5054037;28;20024;-64
2022/06/22 12:03:45;;;;;;;0.88;0.52;;;41.30;38.10;;;;;;5053142;28;20043;-68
2022/06/22 12:06:39;;;;;;;0.82;0.55;;;41.30;38.10;;;;;;5053444;28;20047;-65
2022/06/22 12:09:15;;;;;;;1.85;0.93;;;41.00;37.50;;;;;;5052362;28;20035;-65
2022/06/22 12:11:58;;;;;;;2.92;0.98;;;40.70;37.90;;;;;;5053150;28;20017;-67
2022/06/22 12:17:52;;;;;;;1.30;1.10;;;40.70;37.90;;;;;;5052130;28;20375;-64
2022/06/22 12:20:28;;;;;;;1.23;0.95;;;40.80;37.20;;;;;;5051414;28;20021;-67
2022/06/22 12:22:56;;;;;;;3.67;0.88;;;40.70;37.20;;;;;;5050634;28;20094;-67
2022/06/22 12:25:27;;;;;;;1.27;0.80;;;40.80;37.50;;;;;;5051560;28;20028;-65
2022/06/22 12:28:14;;;;;;;1.38;0.65;;;41.00;37.30;;;;;;5050341;28;20016;-64
2022/06/22 12:31:00;;;;;;;2.42;0.55;;;41.30;36.40;;;;;;5051390;28;20025;-63
2022/06/22 12:34:02;;;;;;;2.13;0.80;;;41.50;36.60;;;;;;5052172;28;20131;-67
2022/06/22 12:36:40;;;;;;;1.60;0.70;;;41.30;37.00;;;;;;5027155;28;20025;-67
2022/06/22 12:39:15;;;;;;;1.20;0.68;;;40.50;37.00;;;;;;5052619;28;20028;-65
2022/06/22 12:42:03;;;;;;;4.20;1.00;;;39.80;37.20;;;;;;5052739;28;20017;-65
2022/06/22 12:44:47;;;;;;;1.35;0.65;;;39.00;38.00;;;;;;5052337;28;20041;-66
2022/06/22 12:47:22;;;;;;;1.20;0.70;;;38.50;38.10;;;;;;5050032;28;20092;-64
2022/06/22 12:49:55;;;;;;;2.50;0.75;;;37.90;38.30;;;;;;5052240;28;20017;-66
2022/06/22 12:52:39;;;;;;;1.73;0.90;;;37.40;38.80;;;;;;5052537;28;20021;-64
2022/06/22 12:55:26;;;;;;;4.00;1.17;;;36.80;39.10;;;;;;5051466;28;20053;-65
2022/06/22 12:57:59;;;;;;;1.33;0.60;;;36.40;39.10;;;;;;5050830;28;20051;-65
2022/06/22 13:00:25;;;;;;;2.08;0.75;;;35.90;39.20;;;;;;5052637;28;20032;-63
2022/06/22 13:02:56;;;;;;;1.70;0.80;;;35.30;39.30;;;;;;5052829;28;20108;-66
2022/06/22 13:05:26;;;;;;;1.90;0.80;;;34.40;40.10;;;;;;5052321;28;20017;-63
2022/06/22 13:08:14;;;;;;;1.95;0.98;;;33.80;40.70;;;;;;5073830;28;20375;-64
2022/06/22 13:10:44;;;;;;;4.50;0.43;;;33.20;40.60;;;;;;5053114;28;20019;-64
2022/06/22 13:13:19;;;;;;;1.95;0.60;;;32.70;40.30;;;;;;5056389;28;20021;-67
2022/06/22 13:16:10;;;;;;;3.22;0.40;;;32.30;40.60;;;;;;5054375;28;20032;-64
2022/06/22 13:18:54;;;;;;;1.33;0.60;;;32.00;40.30;;;;;;5023160;28;20033;-66
2022/06/22 13:21:29;;;;;;;0.40;0.40;;;31.70;40.30;;;;;;5055735;28;20017;-68
2022/06/22 13:24:25;;;;;;;3.30;0.50;;;31.50;40.40;;;;;;5054122;28;20028;-66
2022/06/22 13:27:20;;;;;;;0.52;0.32;;;31.20;39.90;;;;;;5053812;28;20036;-64
2022/06/22 13:29:50;;;;;;;3.67;0.75;;;31.00;39.40;;;;;;5055460;28;20532;-64
2022/06/22 13:32:17;;;;;;;1.23;0.40;;;30.70;39.60;;;;;;5051339;28;20490;-65
2022/06/22 13:34:55;;;;;;;1.52;0.55;;;30.40;38.90;;;;;;5055265;28;20029;-66
2022/06/22 13:37:33;;;;;;;0.88;0.40;;;30.20;39.20;;;;;;5054319;28;20108;-64
2022/06/22 13:40:09;;;;;;;0.20;0.20;;;30.00;38.90;;;;;;5053908;28;20481;-64
2022/06/22 13:42:51;;;;;;;1.30;0.47;;;29.70;38.70;;;;;;5053838;28;20013;-64
2022/06/22 13:45:19;;;;;;;1.17;0.80;;;29.40;39.00;;;;;;5053068;28;20020;-66
2022/06/22 13:48:02;;;;;;;0.45;0.45;;;29.30;38.90;;;;;;5055591;28;20017;-64
2022/06/22 13:51:08;;;;;;;1.33;0.52;;;29.20;39.10;;;;;;5055209;28;20048;-64
2022/06/22 13:54:00;;;;;;;0.83;0.30;;;29.20;38.00;;;;;;5054452;28;20394;-64